Time;durP1;ratioP1;P1;durP2;ratioP2;P2;SDS_P1;SDS_P2;PMS_P1;PMS_P2;Temp;Humidity;BMP_temperature;BMP_pressure;BME280_temperature;BME280_humidity;BME280_pressure;Samples;Min_cycle;Max_cycle;Signal;HPM_P1;HPM_P2
2021/12/28 00:02:46;;;;;;;20.92;4.50;;;;;;;;;;8268891;28;20037;-81
2021/12/28 00:06:47;;;;;;;18.08;4.68;;;;;;;;;;8282523;28;20433;-80
2021/12/28 00:10:47;;;;;;;23.70;4.15;;;;;;;;;;8272442;28;20054;-82
2021/12/28 00:15:03;;;;;;;20.80;3.63;;;;;;;;;;8272293;28;20043;-81
2021/12/28 00:19:03;;;;;;;19.83;3.45;;;;;;;;;;8266751;28;20347;-81
2021/12/28 00:23:04;;;;;;;17.13;3.30;;;;;;;;;;8266402;28;20040;-81
2021/12/28 00:27:04;;;;;;;20.90;3.33;;;;;;;;;;8271038;28;20025;-82
2021/12/28 00:31:05;;;;;;;21.17;3.72;;;;;;;;;;8270429;28;20911;-81
2021/12/28 00:35:05;;;;;;;20.75;3.60;;;;;;;;;;8271208;28;20033;-81
2021/12/28 00:39:06;;;;;;;25.77;4.20;;;;;;;;;;8266676;28;20136;-81
2021/12/28 00:43:07;;;;;;;24.07;3.43;;;;;;;;;;8270243;28;20026;-82
2021/12/28 00:47:07;;;;;;;23.02;4.18;;;;;;;;;;8271090;28;20296;-81
2021/12/28 00:51:08;;;;;;;20.38;3.70;;;;;;;;;;8271647;28;20509;-82
2021/12/28 00:55:09;;;;;;;24.17;3.40;;;;;;;;;;8271803;28;20588;-81
2021/12/28 00:59:09;;;;;;;21.20;3.63;;;;;;;;;;8270811;28;20544;-82
2021/12/28 01:03:09;;;;;;;26.67;4.20;;;;;;;;;;8272319;28;20525;-82
2021/12/28 01:07:10;;;;;;;26.48;3.92;;;;;;;;;;8273560;28;20614;-81
2021/12/28 01:11:10;;;;;;;19.52;3.05;;;;;;;;;;8268618;28;20181;-82
2021/12/28 01:15:11;;;;;;;23.42;3.70;;;;;;;;;;8267672;28;20033;-82
2021/12/28 01:19:11;;;;;;;24.20;4.25;;;;;;;;;;8267098;28;20026;-82
2021/12/28 01:23:12;;;;;;;34.78;4.13;;;;;;;;;;8264780;28;20021;-82
2021/12/28 01:27:12;;;;;;;24.45;3.55;;;;;;;;;;8270285;28;20026;-81
2021/12/28 01:31:12;;;;;;;16.30;3.67;;;;;;;;;;8270116;28;20053;-82
2021/12/28 01:35:15;;;;;;;16.40;2.90;;;;;;;;;;8280008;28;20109;-81
2021/12/28 01:39:15;;;;;;;27.98;3.95;;;;;;;;;;8281171;28;20025;-81
2021/12/28 01:43:20;;;;;;;25.88;4.30;;;;;;;;;;8270937;28;20029;-82
2021/12/28 01:47:21;;;;;;;20.95;3.20;;;;;;;;;;8269918;28;20481;-82
2021/12/28 01:51:22;;;;;;;26.35;3.67;;;;;;;;;;8271395;28;20033;-81
2021/12/28 01:55:22;;;;;;;26.52;3.47;;;;;;;;;;8268376;28;20037;-82
2021/12/28 01:59:22;;;;;;;23.02;3.83;;;;;;;;;;8272538;28;20030;-82
2021/12/28 02:03:23;;;;;;;18.83;2.83;;;;;;;;;;8280183;28;20044;-82
2021/12/28 02:07:23;;;;;;;22.75;3.63;;;;;;;;;;8270846;28;20284;-82
2021/12/28 02:11:23;;;;;;;21.20;3.72;;;;;;;;;;8270488;28;20593;-81
2021/12/28 02:15:24;;;;;;;21.02;3.67;;;;;;;;;;8269264;28;20042;-82
2021/12/28 02:19:24;;;;;;;15.88;2.83;;;;;;;;;;8271011;28;20052;-81
2021/12/28 02:23:24;;;;;;;19.65;3.55;;;;;;;;;;8271300;28;20029;-81
2021/12/28 02:27:26;;;;;;;20.35;3.33;;;;;;;;;;8269186;28;20152;-81
2021/12/28 02:31:27;;;;;;;17.00;2.70;;;;;;;;;;8279458;28;20045;-81
2021/12/28 02:35:27;;;;;;;22.38;3.70;;;;;;;;;;8269676;28;20490;-81
2021/12/28 02:39:27;;;;;;;19.85;3.20;;;;;;;;;;8271446;28;20065;-81
2021/12/28 02:43:28;;;;;;;17.38;3.20;;;;;;;;;;8270905;28;20078;-81
2021/12/28 02:47:28;;;;;;;21.10;3.05;;;;;;;;;;8267522;28;20443;-81
2021/12/28 02:51:29;;;;;;;12.93;2.35;;;;;;;;;;8267723;28;20487;-81
2021/12/28 02:55:30;;;;;;;14.60;2.63;;;;;;;;;;8268345;28;20033;-82
2021/12/28 02:59:31;;;;;;;13.52;2.22;;;;;;;;;;8271502;28;20029;-81
2021/12/28 03:03:32;;;;;;;14.93;2.38;;;;;;;;;;8268460;28;20042;-81
2021/12/28 03:07:32;;;;;;;12.07;2.75;;;;;;;;;;8275494;28;20051;-81
2021/12/28 03:11:33;;;;;;;14.30;3.60;;;;;;;;;;8274607;28;20886;-81
2021/12/28 03:15:33;;;;;;;12.45;2.83;;;;;;;;;;8276559;28;20553;-81
2021/12/28 03:19:34;;;;;;;11.20;2.67;;;;;;;;;;8275118;28;20878;-82
2021/12/28 03:23:35;;;;;;;46.38;3.90;;;;;;;;;;8274961;28;20025;-81
2021/12/28 03:27:35;;;;;;;88.55;6.10;;;;;;;;;;8275185;28;20083;-81
2021/12/28 03:31:35;;;;;;;18.80;4.60;;;;;;;;;;8275495;28;20092;-81
2021/12/28 03:35:35;;;;;;;16.40;4.45;;;;;;;;;;8273532;28;20026;-81
2021/12/28 03:39:35;;;;;;;17.17;4.13;;;;;;;;;;8284256;28;20045;-81
2021/12/28 03:43:37;;;;;;;11.25;4.53;;;;;;;;;;8272028;28;20537;-81
2021/12/28 03:47:37;;;;;;;15.48;3.70;;;;;;;;;;8271014;28;20053;-81
2021/12/28 03:51:37;;;;;;;10.32;2.55;;;;;;;;;;8275598;28;20034;-81
2021/12/28 03:55:38;;;;;;;9.95;1.90;;;;;;;;;;8266343;28;20072;-82
2021/12/28 03:59:38;;;;;;;7.53;1.92;;;;;;;;;;8284314;28;20076;-82
2021/12/28 04:03:39;;;;;;;11.48;1.90;;;;;;;;;;8267279;28;20034;-82
2021/12/28 04:07:39;;;;;;;10.45;2.35;;;;;;;;;;8273946;28;20030;-82
2021/12/28 04:11:39;;;;;;;8.48;1.88;;;;;;;;;;8274272;28;20029;-82
2021/12/28 04:15:40;;;;;;;17.85;2.03;;;;;;;;;;8271408;28;20120;-83
2021/12/28 04:19:40;;;;;;;12.95;2.22;;;;;;;;;;8271840;28;20685;-82
2021/12/28 04:23:40;;;;;;;11.90;2.57;;;;;;;;;;8273158;28;20044;-82
2021/12/28 04:27:41;;;;;;;7.13;1.53;;;;;;;;;;8272907;28;20284;-82
2021/12/28 04:31:41;;;;;;;9.55;1.85;;;;;;;;;;8283406;28;20269;-83
2021/12/28 04:35:41;;;;;;;8.82;1.95;;;;;;;;;;8274604;28;20570;-83
2021/12/28 04:39:41;;;;;;;7.05;1.58;;;;;;;;;;8273587;28;20025;-82
2021/12/28 04:43:43;;;;;;;2.95;1.08;;;;;;;;;;8272218;28;20036;-82
2021/12/28 04:47:43;;;;;;;6.82;1.50;;;;;;;;;;8268271;28;20745;-82
2021/12/28 04:51:43;;;;;;;7.67;1.73;;;;;;;;;;8271753;28;20360;-83
2021/12/28 04:55:45;;;;;;;10.30;1.70;;;;;;;;;;8273625;28;20296;-82
2021/12/28 04:59:45;;;;;;;8.07;2.47;;;;;;;;;;8274813;28;20265;-81
2021/12/28 05:03:45;;;;;;;5.37;2.07;;;;;;;;;;8271132;28;20042;-82
2021/12/28 05:07:46;;;;;;;5.65;1.77;;;;;;;;;;8270797;28;20368;-81
2021/12/28 05:11:46;;;;;;;7.53;1.73;;;;;;;;;;8273404;28;20021;-82
2021/12/28 05:15:48;;;;;;;4.30;1.70;;;;;;;;;;8271073;28;20044;-82
2021/12/28 05:19:48;;;;;;;2.78;1.15;;;;;;;;;;8272691;28;20022;-82
2021/12/28 05:23:49;;;;;;;5.63;1.65;;;;;;;;;;8264679;28;20129;-82
2021/12/28 05:27:49;;;;;;;6.78;1.80;;;;;;;;;;8268811;28;20040;-82
2021/12/28 05:31:49;;;;;;;4.93;1.48;;;;;;;;;;8271896;28;20265;-81
2021/12/28 05:35:49;;;;;;;5.40;1.75;;;;;;;;;;8264558;28;20033;-81
2021/12/28 05:39:50;;;;;;;9.40;2.95;;;;;;;;;;8271774;28;20848;-82
2021/12/28 05:43:50;;;;;;;5.80;2.17;;;;;;;;;;8271093;28;20144;-82
2021/12/28 05:47:50;;;;;;;6.20;1.80;;;;;;;;;;8269484;28;20149;-82
2021/12/28 05:51:51;;;;;;;10.13;2.47;;;;;;;;;;8271554;28;20440;-82
2021/12/28 05:55:51;;;;;;;10.57;1.92;;;;;;;;;;8273059;28;20847;-81
2021/12/28 05:59:51;;;;;;;6.25;1.60;;;;;;;;;;8269740;28;20519;-82
2021/12/28 06:03:51;;;;;;;15.02;4.15;;;;;;;;;;8278107;28;20164;-81
2021/12/28 06:07:52;;;;;;;13.57;3.53;;;;;;;;;;8266408;28;20029;-81
2021/12/28 06:11:52;;;;;;;6.75;2.60;;;;;;;;;;8269761;28;20022;-81
2021/12/28 06:15:52;;;;;;;60.58;9.80;;;;;;;;;;8270920;28;20042;-81
2021/12/28 06:19:52;;;;;;;184.75;6.65;;;;;;;;;;8267531;28;20103;-81
2021/12/28 06:23:53;;;;;;;268.80;10.45;;;;;;;;;;8286106;28;20121;-81
2021/12/28 06:27:53;;;;;;;559.60;18.07;;;;;;;;;;8269669;28;20519;-81
2021/12/28 06:31:53;;;;;;;514.33;15.80;;;;;;;;;;8268490;28;20809;-81
2021/12/28 06:35:54;;;;;;;730.83;21.03;;;;;;;;;;8271410;28;20037;-81
2021/12/28 06:39:54;;;;;;;801.13;24.38;;;;;;;;;;8275915;28;20427;-81
2021/12/28 06:43:54;;;;;;;900.92;25.20;;;;;;;;;;8275657;28;20026;-82
2021/12/28 06:47:54;;;;;;;918.47;28.30;;;;;;;;;;8277113;28;20045;-82
2021/12/28 06:51:55;;;;;;;725.45;22.17;;;;;;;;;;8276363;28;20438;-81
2021/12/28 06:55:55;;;;;;;768.03;19.00;;;;;;;;;;8275605;28;20453;-81
2021/12/28 06:59:55;;;;;;;948.85;23.92;;;;;;;;;;8276642;28;21003;-83
2021/12/28 07:03:55;;;;;;;482.98;16.40;;;;;;;;;;8272309;28;20045;-82
2021/12/28 07:07:55;;;;;;;358.33;12.32;;;;;;;;;;8270968;28;20029;-82
2021/12/28 07:11:55;;;;;;;266.23;8.80;;;;;;;;;;8277090;28;20026;-82
2021/12/28 07:15:56;;;;;;;416.77;12.48;;;;;;;;;;8276456;28;20058;-82
2021/12/28 07:19:56;;;;;;;465.90;16.40;;;;;;;;;;8276166;28;20132;-82
2021/12/28 07:23:56;;;;;;;459.70;11.95;;;;;;;;;;8275320;28;20060;-82
2021/12/28 07:27:56;;;;;;;275.63;7.45;;;;;;;;;;8273562;28;20585;-82
2021/12/28 07:31:56;;;;;;;460.88;11.65;;;;;;;;;;8274255;28;20042;-80
2021/12/28 07:35:57;;;;;;;414.08;11.75;;;;;;;;;;8274318;28;20030;-80
2021/12/28 07:39:57;;;;;;;181.25;9.38;;;;;;;;;;8272272;28;20022;-80
2021/12/28 07:43:57;;;;;;;409.17;9.93;;;;;;;;;;8274161;28;20049;-80
2021/12/28 07:47:57;;;;;;;199.65;7.63;;;;;;;;;;8266054;28;20123;-80
2021/12/28 07:51:58;;;;;;;208.30;13.65;;;;;;;;;;8268015;28;20775;-80
2021/12/28 07:55:59;;;;;;;612.42;18.00;;;;;;;;;;8275000;28;20486;-79
2021/12/28 07:59:59;;;;;;;531.55;14.88;;;;;;;;;;8273050;28;20685;-79
2021/12/28 08:03:59;;;;;;;440.60;13.07;;;;;;;;;;8265985;28;20096;-79
2021/12/28 08:07:59;;;;;;;435.13;13.32;;;;;;;;;;8275263;28;20030;-79
2021/12/28 08:12:00;;;;;;;217.88;6.97;;;;;;;;;;8273351;28;20022;-80
2021/12/28 08:16:00;;;;;;;86.75;4.30;;;;;;;;;;8273452;28;20030;-80
2021/12/28 08:20:00;;;;;;;224.57;6.53;;;;;;;;;;8274261;28;20033;-80
2021/12/28 08:24:00;;;;;;;344.40;8.23;;;;;;;;;;8265664;28;20034;-79
2021/12/28 08:28:04;;;;;;;233.50;5.20;;;;;;;;;;8272510;28;20026;-80
2021/12/28 08:32:05;;;;;;;209.13;5.07;;;;;;;;;;8272743;28;21254;-79
2021/12/28 08:36:05;;;;;;;54.05;3.10;;;;;;;;;;8273318;28;20399;-79
2021/12/28 08:40:06;;;;;;;2.00;1.80;;;;;;;;;;8274439;28;20045;-79
2021/12/28 08:44:07;;;;;;;2.03;1.10;;;;;;;;;;8273729;28;20514;-79
2021/12/28 08:48:08;;;;;;;0.70;0.70;;;;;;;;;;8266891;28;20041;-79
2021/12/28 08:52:08;;;;;;;0.40;0.40;;;;;;;;;;8280662;28;20067;-80
2021/12/28 08:56:08;;;;;;;0.50;0.50;;;;;;;;;;8274259;28;20159;-80
2021/12/28 09:00:13;;;;;;;0.60;0.60;;;;;;;;;;8273367;28;20029;-79
2021/12/28 09:04:14;;;;;;;0.40;0.40;;;;;;;;;;8272568;28;20033;-80
2021/12/28 09:08:17;;;;;;;0.40;0.40;;;;;;;;;;8273748;28;20037;-80
2021/12/28 09:12:17;;;;;;;0.50;0.50;;;;;;;;;;8274020;28;20114;-79
2021/12/28 09:16:17;;;;;;;0.57;0.55;;;;;;;;;;8281709;28;20029;-80
2021/12/28 09:20:19;;;;;;;0.47;0.47;;;;;;;;;;8271779;28;21065;-80
2021/12/28 09:24:19;;;;;;;0.50;0.50;;;;;;;;;;8272996;28;20022;-80
2021/12/28 09:28:20;;;;;;;0.40;0.40;;;;;;;;;;8271435;28;20044;-80
2021/12/28 09:32:20;;;;;;;0.50;0.50;;;;;;;;;;8271662;28;20042;-80
2021/12/28 09:36:21;;;;;;;0.55;0.55;;;;;;;;;;8270711;28;20036;-81
2021/12/28 09:40:21;;;;;;;0.50;0.50;;;;;;;;;;8281993;28;20022;-80
2021/12/28 09:44:21;;;;;;;0.60;0.60;;;;;;;;;;8272367;28;20030;-79
2021/12/28 09:48:21;;;;;;;0.55;0.50;;;;;;;;;;8262401;28;20104;-80
2021/12/28 09:52:22;;;;;;;0.60;0.60;;;;;;;;;;8271778;28;20018;-80
2021/12/28 09:56:22;;;;;;;2.83;0.67;;;;;;;;;;8281518;28;20083;-81
2021/12/28 10:00:23;;;;;;;0.98;0.60;;;;;;;;;;8272084;28;20293;-80
2021/12/28 10:04:23;;;;;;;0.95;0.77;;;;;;;;;;8264614;28;20061;-80
2021/12/28 10:08:24;;;;;;;0.80;0.80;;;;;;;;;;8271679;28;20307;-80
2021/12/28 10:12:37;;;;;;;0.60;0.60;;;;;;;;;;8271474;28;20045;-80
2021/12/28 10:16:41;;;;;;;0.73;0.70;;;;;;;;;;8271784;28;20037;-80
2021/12/28 10:20:46;;;;;;;0.60;0.60;;;;;;;;;;8279676;28;20037;-80
2021/12/28 10:24:48;;;;;;;0.68;0.60;;;;;;;;;;8270608;28;20705;-80
2021/12/28 10:28:48;;;;;;;1.60;0.70;;;;;;;;;;8273307;28;20041;-80
2021/12/28 10:32:53;;;;;;;0.60;0.60;;;;;;;;;;8267201;28;20038;-80
2021/12/28 10:36:53;;;;;;;1.23;0.57;;;;;;;;;;8270745;28;20033;-81
2021/12/28 10:40:57;;;;;;;0.88;0.70;;;;;;;;;;8271985;28;20026;-81
2021/12/28 10:45:00;;;;;;;0.98;0.50;;;;;;;;;;8270081;28;20025;-80
2021/12/28 10:49:02;;;;;;;0.95;0.70;;;;;;;;;;8270359;28;20088;-80
2021/12/28 10:53:07;;;;;;;1.10;0.90;;;;;;;;;;8272305;28;20554;-80
2021/12/28 10:57:07;;;;;;;0.93;0.80;;;;;;;;;;8265068;28;20478;-81
2021/12/28 11:01:14;;;;;;;0.90;0.90;;;;;;;;;;8272710;28;20038;-80
2021/12/28 11:05:29;;;;;;;1.00;1.00;;;;;;;;;;8270572;28;20539;-80
2021/12/28 11:09:29;;;;;;;;;;;;;;;;;;8271822;28;20510;-80
2021/12/28 11:13:30;;;;;;;1.17;0.90;;;;;;;;;;8278691;28;19913;-80
2021/12/28 11:17:31;;;;;;;1.15;1.05;;;;;;;;;;8268655;28;20045;-81
2021/12/28 11:21:36;;;;;;;1.67;1.10;;;;;;;;;;8267974;28;20037;-80
2021/12/28 11:25:37;;;;;;;2.25;1.70;;;;;;;;;;8267440;28;20029;-79
2021/12/28 11:29:39;;;;;;;1.63;1.20;;;;;;;;;;8285427;28;20574;-80
2021/12/28 11:34:06;;;;;;;1.45;0.93;;;;;;;;;;8273616;28;20133;-80
2021/12/28 11:38:07;;;;;;;0.80;0.77;;;;;;;;;;8269034;28;20037;-80
2021/12/28 11:42:08;;;;;;;1.00;1.00;;;;;;;;;;8272079;28;20056;-80
2021/12/28 11:46:09;;;;;;;2.67;1.00;;;;;;;;;;8284098;28;20042;-80
2021/12/28 11:50:11;;;;;;;0.77;0.77;;;;;;;;;;8275342;28;20033;-80
2021/12/28 11:54:13;;;;;;;1.75;0.93;;;;;;;;;;8273008;28;20048;-80
2021/12/28 11:58:13;;;;;;;2.50;0.90;;;;;;;;;;8275209;28;20038;-80
2021/12/28 12:02:14;;;;;;;0.70;0.70;;;;;;;;;;8274193;28;20038;-80
2021/12/28 12:06:14;;;;;;;0.77;0.70;;;;;;;;;;8267787;28;20064;-80
2021/12/28 12:10:19;;;;;;;2.13;0.90;;;;;;;;;;8273445;28;20682;-80
2021/12/28 12:14:19;;;;;;;0.88;0.85;;;;;;;;;;8275588;28;20112;-80
2021/12/28 12:18:21;;;;;;;1.20;0.70;;;;;;;;;;8274419;28;20045;-80
2021/12/28 12:22:30;;;;;;;1.42;0.77;;;;;;;;;;8273269;28;20061;-78
2021/12/28 12:26:31;;;;;;;1.38;0.70;;;;;;;;;;8266969;28;20565;-80
2021/12/28 12:30:34;;;;;;;1.88;0.90;;;;;;;;;;8276172;28;20912;-79
2021/12/28 12:34:37;;;;;;;2.22;0.90;;;;;;;;;;8272377;28;20041;-81
2021/12/28 12:38:37;;;;;;;2.13;0.80;;;;;;;;;;8274471;28;20036;-79
2021/12/28 12:42:38;;;;;;;2.67;0.80;;;;;;;;;;8273473;28;20021;-80
2021/12/28 12:46:40;;;;;;;2.25;0.93;;;;;;;;;;8273826;28;20041;-80
2021/12/28 12:50:41;;;;;;;4.75;0.80;;;;;;;;;;8273384;28;20029;-80
2021/12/28 12:54:46;;;;;;;1.35;0.80;;;;;;;;;;8273267;28;20026;-80
2021/12/28 12:58:47;;;;;;;2.88;1.05;;;;;;;;;;8274183;28;20144;-80
2021/12/28 13:02:58;;;;;;;1.83;0.90;;;;;;;;;;8271945;28;20046;-79
2021/12/28 13:07:15;;;;;;;3.55;1.05;;;;;;;;;;8276009;28;20032;-80
2021/12/28 13:11:28;;;;;;;5.68;1.17;;;;;;;;;;8274318;28;20029;-80
2021/12/28 13:15:29;;;;;;;4.40;1.45;;;;;;;;;;8289269;28;20045;-80
2021/12/28 13:19:30;;;;;;;5.32;1.45;;;;;;;;;;8273280;28;20032;-79
2021/12/28 13:23:30;;;;;;;4.03;1.10;;;;;;;;;;8275541;28;20144;-80
2021/12/28 13:27:30;;;;;;;4.88;1.45;;;;;;;;;;8270591;28;20033;-79
2021/12/28 13:31:30;;;;;;;9.40;1.50;;;;;;;;;;8274796;28;20960;-80
2021/12/28 13:35:32;;;;;;;4.30;1.02;;;;;;;;;;8271990;28;20022;-78
2021/12/28 13:39:32;;;;;;;3.53;1.27;;;;;;;;;;8276615;28;20021;-80
2021/12/28 13:43:34;;;;;;;6.40;1.40;;;;;;;;;;8274928;28;20061;-80
2021/12/28 13:47:38;;;;;;;6.40;1.50;;;;;;;;;;8273219;28;20046;-80
2021/12/28 13:51:38;;;;;;;6.95;1.70;;;;;;;;;;8273675;28;20922;-80
2021/12/28 13:55:38;;;;;;;4.78;1.20;;;;;;;;;;8272625;28;20029;-79
2021/12/28 13:59:38;;;;;;;8.60;1.65;;;;;;;;;;8273127;28;20033;-79
2021/12/28 14:03:39;;;;;;;5.90;1.75;;;;;;;;;;8273260;28;20448;-79
2021/12/28 14:07:39;;;;;;;6.55;1.65;;;;;;;;;;8271749;28;20449;-80
2021/12/28 14:11:48;;;;;;;9.20;1.60;;;;;;;;;;8271104;28;20838;-79
2021/12/28 14:15:48;;;;;;;9.02;1.95;;;;;;;;;;8273310;28;20103;-79
2021/12/28 14:19:56;;;;;;;7.00;1.50;;;;;;;;;;8267794;28;20467;-79
2021/12/28 14:23:56;;;;;;;8.05;1.70;;;;;;;;;;8282157;28;20033;-79
2021/12/28 14:27:58;;;;;;;11.13;1.67;;;;;;;;;;8271538;28;20030;-79
2021/12/28 14:32:00;;;;;;;13.88;1.95;;;;;;;;;;8274145;28;20642;-79
2021/12/28 14:36:07;;;;;;;10.07;1.60;;;;;;;;;;8271872;28;20061;-77
2021/12/28 14:40:12;;;;;;;13.25;1.92;;;;;;;;;;8274034;28;20030;-77
2021/12/28 14:44:21;;;;;;;10.52;1.88;;;;;;;;;;8272304;28;20030;-78
2021/12/28 14:48:22;;;;;;;8.00;1.98;;;;;;;;;;8263733;28;20073;-78
2021/12/28 14:52:22;;;;;;;13.70;2.55;;;;;;;;;;8272267;28;20034;-78
2021/12/28 14:56:29;;;;;;;12.60;2.40;;;;;;;;;;8263605;28;20036;-78
2021/12/28 15:00:32;;;;;;;16.23;1.90;;;;;;;;;;8270781;28;20038;-78
2021/12/28 15:04:32;;;;;;;8.67;1.53;;;;;;;;;;8267261;28;20777;-77
2021/12/28 15:08:33;;;;;;;9.15;1.27;;;;;;;;;;8274206;28;20040;-77
2021/12/28 15:12:35;;;;;;;4.20;0.88;;;;;;;;;;8275885;28;20489;-77
2021/12/28 15:16:35;;;;;;;1.92;0.63;;;;;;;;;;8275009;28;20092;-78
2021/12/28 15:20:36;;;;;;;2.63;0.80;;;;;;;;;;8272074;28;20434;-77
2021/12/28 15:24:36;;;;;;;2.28;0.90;;;;;;;;;;8274944;28;20055;-77
2021/12/28 15:28:36;;;;;;;2.28;0.80;;;;;;;;;;8276934;28;20032;-77
2021/12/28 15:32:36;;;;;;;5.28;1.55;;;;;;;;;;8273179;28;20062;-78
2021/12/28 15:36:37;;;;;;;3.25;1.00;;;;;;;;;;8277408;28;20940;-77
2021/12/28 15:40:38;;;;;;;6.43;1.30;;;;;;;;;;8275037;28;20045;-78
2021/12/28 15:44:39;;;;;;;8.82;1.63;;;;;;;;;;8274636;28;20295;-78
2021/12/28 15:48:39;;;;;;;7.90;1.63;;;;;;;;;;8272683;28;20041;-78
2021/12/28 15:52:39;;;;;;;11.38;1.90;;;;;;;;;;8267972;28;20498;-78
2021/12/28 15:56:41;;;;;;;13.38;2.25;;;;;;;;;;8271312;28;20847;-77
2021/12/28 16:00:41;;;;;;;15.60;2.42;;;;;;;;;;8271933;28;20087;-78
2021/12/28 16:04:41;;;;;;;15.68;2.28;;;;;;;;;;8270219;28;20137;-78
2021/12/28 16:08:43;;;;;;;16.33;2.17;;;;;;;;;;8273640;28;20037;-78
2021/12/28 16:12:43;;;;;;;13.05;2.28;;;;;;;;;;8273115;28;20626;-78
2021/12/28 16:16:45;;;;;;;16.25;2.67;;;;;;;;;;8273148;28;20033;-77
2021/12/28 16:20:45;;;;;;;18.23;2.42;;;;;;;;;;8265634;28;20036;-78
2021/12/28 16:24:46;;;;;;;20.67;2.80;;;;;;;;;;8264159;28;20029;-76
2021/12/28 16:28:48;;;;;;;18.33;2.78;;;;;;;;;;8270016;28;20340;-76
2021/12/28 16:32:48;;;;;;;18.27;2.72;;;;;;;;;;8270271;28;20125;-76
2021/12/28 16:36:48;;;;;;;13.63;2.58;;;;;;;;;;8271223;28;20584;-76
2021/12/28 16:40:48;;;;;;;17.50;2.80;;;;;;;;;;8273579;28;20026;-76
2021/12/28 16:44:49;;;;;;;13.55;2.67;;;;;;;;;;8271457;28;20076;-76
2021/12/28 16:48:50;;;;;;;8.93;2.10;;;;;;;;;;8268823;28;20046;-77
2021/12/28 16:52:50;;;;;;;9.88;2.35;;;;;;;;;;8272369;28;20022;-78
2021/12/28 16:56:51;;;;;;;18.60;3.08;;;;;;;;;;8268042;28;20410;-77
2021/12/28 17:00:52;;;;;;;15.80;2.28;;;;;;;;;;8270843;28;20060;-77
2021/12/28 17:04:53;;;;;;;15.98;2.30;;;;;;;;;;8270837;28;20026;-77
2021/12/28 17:08:54;;;;;;;14.45;2.47;;;;;;;;;;8271438;28;20022;-77
2021/12/28 17:12:54;;;;;;;21.88;2.95;;;;;;;;;;8270221;28;20057;-77
2021/12/28 17:16:54;;;;;;;14.77;2.78;;;;;;;;;;8273401;28;20038;-77
2021/12/28 17:20:54;;;;;;;13.02;2.53;;;;;;;;;;8272438;28;20033;-78
2021/12/28 17:24:54;;;;;;;21.27;2.70;;;;;;;;;;8271807;28;20026;-77
2021/12/28 17:28:55;;;;;;;17.10;2.75;;;;;;;;;;8271912;28;20136;-77
2021/12/28 17:32:55;;;;;;;23.13;3.40;;;;;;;;;;8266745;28;20104;-77
2021/12/28 17:36:55;;;;;;;22.58;3.05;;;;;;;;;;8288101;28;20029;-77
2021/12/28 17:40:58;;;;;;;15.98;2.63;;;;;;;;;;8271068;28;20113;-77
2021/12/28 17:44:59;;;;;;;19.58;3.28;;;;;;;;;;8270286;28;21010;-77
2021/12/28 17:48:59;;;;;;;22.95;3.80;;;;;;;;;;8269516;28;20050;-77
2021/12/28 17:52:59;;;;;;;22.13;3.22;;;;;;;;;;8270690;28;20487;-77
2021/12/28 17:56:59;;;;;;;18.45;3.10;;;;;;;;;;8272142;28;20026;-77
2021/12/28 18:01:00;;;;;;;20.70;3.20;;;;;;;;;;8264011;28;20364;-77
2021/12/28 18:05:00;;;;;;;21.58;3.40;;;;;;;;;;8264993;28;20029;-77
2021/12/28 18:09:00;;;;;;;14.80;2.90;;;;;;;;;;8271227;28;20076;-77
2021/12/28 18:13:00;;;;;;;12.77;2.60;;;;;;;;;;8268569;28;20032;-76
2021/12/28 18:17:00;;;;;;;16.98;3.17;;;;;;;;;;8268595;28;20454;-77
2021/12/28 18:21:01;;;;;;;18.67;3.13;;;;;;;;;;8272098;28;20030;-77
2021/12/28 18:25:02;;;;;;;20.08;2.42;;;;;;;;;;8268788;28;20280;-76
2021/12/28 18:29:06;;;;;;;18.45;3.17;;;;;;;;;;8270904;28;20057;-77
2021/12/28 18:33:10;;;;;;;15.30;2.75;;;;;;;;;;8268986;28;20407;-76
2021/12/28 18:37:11;;;;;;;18.10;2.90;;;;;;;;;;8271338;28;20025;-76
2021/12/28 18:41:11;;;;;;;12.05;2.60;;;;;;;;;;8278038;28;20103;-77
2021/12/28 18:45:11;;;;;;;18.27;2.72;;;;;;;;;;8275584;28;20022;-77
2021/12/28 18:49:11;;;;;;;17.77;3.35;;;;;;;;;;8270332;28;20061;-77
2021/12/28 18:53:16;;;;;;;21.20;3.25;;;;;;;;;;8276701;28;20049;-77
2021/12/28 18:57:16;;;;;;;15.40;2.75;;;;;;;;;;8276345;28;21014;-77
2021/12/28 19:01:17;;;;;;;19.23;2.85;;;;;;;;;;8276241;28;20041;-76
2021/12/28 19:05:18;;;;;;;18.05;3.13;;;;;;;;;;8290520;28;20442;-77
2021/12/28 19:09:19;;;;;;;25.25;3.90;;;;;;;;;;8285824;28;20460;-76
2021/12/28 19:13:20;;;;;;;16.33;3.70;;;;;;;;;;8275602;28;20014;-76
2021/12/28 19:17:20;;;;;;;20.02;3.67;;;;;;;;;;8276045;28;20041;-76
2021/12/28 19:21:22;;;;;;;16.45;2.85;;;;;;;;;;8273715;28;20093;-76
2021/12/28 19:25:25;;;;;;;18.88;3.13;;;;;;;;;;8275342;28;20042;-76
2021/12/28 19:29:27;;;;;;;18.65;2.90;;;;;;;;;;8271410;28;20537;-76
2021/12/28 19:33:28;;;;;;;16.63;2.50;;;;;;;;;;8272418;28;20042;-76
2021/12/28 19:37:29;;;;;;;19.10;3.55;;;;;;;;;;8275241;28;20030;-76
2021/12/28 19:41:29;;;;;;;15.75;2.97;;;;;;;;;;8273401;28;20025;-76
2021/12/28 19:45:29;;;;;;;20.60;2.80;;;;;;;;;;8272121;28;20045;-77
2021/12/28 19:49:35;;;;;;;22.83;3.08;;;;;;;;;;8271605;28;20057;-78
2021/12/28 19:53:35;;;;;;;19.15;2.95;;;;;;;;;;8273735;28;20026;-78
2021/12/28 19:57:36;;;;;;;14.02;2.33;;;;;;;;;;8274495;28;20033;-76
2021/12/28 20:01:36;;;;;;;11.85;2.53;;;;;;;;;;8273653;28;20099;-77
2021/12/28 20:05:37;;;;;;;11.50;2.50;;;;;;;;;;8272305;28;20129;-77
2021/12/28 20:09:37;;;;;;;13.45;2.30;;;;;;;;;;8275756;28;20530;-77
2021/12/28 20:13:37;;;;;;;11.63;2.30;;;;;;;;;;8268061;28;20843;-76
2021/12/28 20:17:37;;;;;;;18.65;2.53;;;;;;;;;;8267192;28;20033;-77
2021/12/28 20:21:38;;;;;;;17.08;2.80;;;;;;;;;;8273231;28;20041;-77
2021/12/28 20:25:38;;;;;;;10.50;2.45;;;;;;;;;;8273237;28;20026;-78
2021/12/28 20:29:39;;;;;;;13.97;2.20;;;;;;;;;;8273626;28;20066;-79
2021/12/28 20:33:39;;;;;;;16.60;2.72;;;;;;;;;;8271433;28;20272;-78
2021/12/28 20:37:40;;;;;;;8.43;1.73;;;;;;;;;;8271696;28;20030;-77
2021/12/28 20:41:40;;;;;;;15.05;2.20;;;;;;;;;;8273337;28;20036;-77
2021/12/28 20:45:41;;;;;;;14.65;2.80;;;;;;;;;;8269833;28;20446;-76
2021/12/28 20:49:44;;;;;;;9.90;1.92;;;;;;;;;;8273372;28;20032;-77
2021/12/28 20:53:44;;;;;;;13.45;2.72;;;;;;;;;;8268360;28;20025;-77
2021/12/28 20:57:48;;;;;;;10.93;1.58;;;;;;;;;;8267346;28;20032;-77
2021/12/28 21:01:50;;;;;;;5.45;1.60;;;;;;;;;;8267977;28;20033;-75
2021/12/28 21:05:51;;;;;;;8.90;1.75;;;;;;;;;;8267239;28;20025;-81
2021/12/28 21:09:51;;;;;;;10.18;1.70;;;;;;;;;;8272337;28;20025;-82
2021/12/28 21:13:52;;;;;;;9.00;1.77;;;;;;;;;;8273491;28;20140;-81
2021/12/28 21:17:52;;;;;;;9.80;1.88;;;;;;;;;;8270836;28;20107;-83
2021/12/28 21:21:53;;;;;;;7.07;1.45;;;;;;;;;;8273190;28;20033;-82
2021/12/28 21:25:54;;;;;;;9.60;1.70;;;;;;;;;;8270706;28;20057;-82
2021/12/28 21:30:13;;;;;;;5.70;1.20;;;;;;;;;;8272514;28;20030;-81
2021/12/28 21:34:14;;;;;;;8.98;1.73;;;;;;;;;;8264596;28;20057;-82
2021/12/28 21:38:14;;;;;;;9.15;1.27;;;;;;;;;;8271777;28;20364;-82
2021/12/28 21:42:15;;;;;;;4.80;1.30;;;;;;;;;;8272541;28;20056;-83
2021/12/28 21:46:15;;;;;;;8.50;1.80;;;;;;;;;;8270878;28;20034;-82
2021/12/28 21:50:15;;;;;;;5.87;1.20;;;;;;;;;;8270758;28;20063;-80
2021/12/28 21:54:17;;;;;;;6.97;1.30;;;;;;;;;;8271485;28;21169;-81
2021/12/28 21:58:20;;;;;;;6.28;1.70;;;;;;;;;;8281089;28;20111;-82
2021/12/28 22:02:20;;;;;;;4.25;1.27;;;;;;;;;;8271099;28;20046;-82
2021/12/28 22:06:21;;;;;;;5.78;1.20;;;;;;;;;;8270364;28;20516;-83
2021/12/28 22:10:22;;;;;;;4.75;1.02;;;;;;;;;;8272182;28;20502;-81
2021/12/28 22:14:22;;;;;;;5.40;1.42;;;;;;;;;;8269402;28;20018;-82
2021/12/28 22:18:24;;;;;;;3.83;1.10;;;;;;;;;;8270843;28;20042;-82
2021/12/28 22:22:25;;;;;;;4.63;1.10;;;;;;;;;;8272324;28;20729;-82
2021/12/28 22:26:25;;;;;;;5.03;1.17;;;;;;;;;;8270966;28;20034;-82
2021/12/28 22:30:26;;;;;;;5.35;1.45;;;;;;;;;;8272788;28;20135;-82
2021/12/28 22:34:27;;;;;;;2.92;1.08;;;;;;;;;;8262335;28;20709;-81
2021/12/28 22:38:28;;;;;;;4.18;1.02;;;;;;;;;;8270500;28;20081;-82
2021/12/28 22:42:28;;;;;;;6.70;1.00;;;;;;;;;;8270144;28;20940;-82
2021/12/28 22:46:29;;;;;;;5.80;1.27;;;;;;;;;;8262987;28;20947;-83
2021/12/28 22:50:29;;;;;;;4.03;1.40;;;;;;;;;;8270278;28;20136;-82
2021/12/28 22:54:29;;;;;;;3.08;1.00;;;;;;;;;;8270091;28;20048;-82
2021/12/28 22:58:31;;;;;;;2.03;0.90;;;;;;;;;;8268088;28;20030;-82
2021/12/28 23:02:31;;;;;;;3.53;1.10;;;;;;;;;;8277673;28;20285;-83
2021/12/28 23:06:32;;;;;;;4.38;1.08;;;;;;;;;;8270476;28;20474;-82
2021/12/28 23:10:32;;;;;;;4.45;1.17;;;;;;;;;;8268245;28;20030;-81
2021/12/28 23:14:32;;;;;;;3.10;0.82;;;;;;;;;;8271819;28;20033;-82
2021/12/28 23:18:33;;;;;;;3.70;1.23;;;;;;;;;;8261496;28;20044;-82
2021/12/28 23:22:33;;;;;;;6.90;1.00;;;;;;;;;;8281587;28;20365;-82
2021/12/28 23:26:34;;;;;;;2.83;0.85;;;;;;;;;;8275802;28;20034;-82
2021/12/28 23:30:34;;;;;;;3.03;0.85;;;;;;;;;;8283609;28;20491;-82
2021/12/28 23:34:34;;;;;;;5.05;1.05;;;;;;;;;;8272870;28;20128;-82
2021/12/28 23:38:35;;;;;;;1.92;0.80;;;;;;;;;;8275571;28;20014;-82
2021/12/28 23:42:35;;;;;;;5.85;1.27;;;;;;;;;;8273213;28;20030;-82
2021/12/28 23:46:36;;;;;;;4.47;0.90;;;;;;;;;;8273928;28;20065;-82
2021/12/28 23:50:36;;;;;;;2.92;0.90;;;;;;;;;;8272983;28;20034;-82